Time;durP1;ratioP1;P1;durP2;ratioP2;P2;SDS_P1;SDS_P2;PMS_P1;PMS_P2;Temp;Humidity;BMP_temperature;BMP_pressure;BME280_temperature;BME280_humidity;BME280_pressure;Samples;Min_cycle;Max_cycle;Signal;HPM_P1;HPM_P2
2022/01/24 00:01:27;;;;;;;8.73;5.78;;;6.40;99.90;;;;;;5112314;28;20035;-47
2022/01/24 00:03:56;;;;;;;7.70;5.35;;;6.40;99.90;;;;;;5115699;28;20076;-48
2022/01/24 00:06:26;;;;;;;7.93;5.47;;;6.40;99.90;;;;;;5115605;28;20039;-49
2022/01/24 00:08:52;;;;;;;6.82;4.88;;;6.40;99.90;;;;;;5115650;28;20039;-47
2022/01/24 00:11:22;;;;;;;7.35;5.22;;;6.40;99.90;;;;;;5115627;28;20096;-47
2022/01/24 00:16:56;;;;;;;6.47;5.47;;;6.40;99.90;;;;;;5115385;28;20067;-51
2022/01/24 00:27:14;;;;;;;6.85;5.90;;;6.30;99.90;;;;;;5114912;28;20474;-48
2022/01/24 00:29:40;;;;;;;7.35;5.25;;;6.30;99.90;;;;;;5114810;28;20058;-52
2022/01/24 00:32:06;;;;;;;6.40;5.40;;;6.30;99.90;;;;;;5115081;28;20047;-51
2022/01/24 00:34:32;;;;;;;5.97;5.28;;;6.30;99.90;;;;;;5114959;28;20055;-49
2022/01/24 00:36:58;;;;;;;6.85;5.50;;;6.30;99.90;;;;;;5113876;28;20039;-47
2022/01/24 00:39:24;;;;;;;5.65;4.97;;;6.30;99.90;;;;;;5114641;28;20039;-50
2022/01/24 00:47:26;;;;;;;8.40;5.38;;;6.30;99.90;;;;;;5012311;28;20046;-47
2022/01/24 00:53:11;;;;;;;7.65;5.70;;;6.20;99.90;;;;;;5012322;28;20066;-51
2022/01/24 00:55:23;;;;;;;7.00;5.43;;;6.20;99.90;;;;;;5012145;28;20045;-48
2022/01/24 00:57:49;;;;;;;8.10;5.18;;;6.20;99.90;;;;;;5012031;28;20049;-51
2022/01/24 01:00:15;;;;;;;7.57;5.43;;;6.20;99.90;;;;;;5012072;28;20034;-48
2022/01/24 01:02:41;;;;;;;5.63;4.90;;;6.10;99.90;;;;;;5011938;28;20401;-47
2022/01/24 01:18:05;;;;;;;5.82;5.00;;;6.00;99.90;;;;;;5012208;28;20046;-47
2022/01/24 01:18:55;;;;;;;6.72;4.43;;;6.00;99.90;;;;;;5011753;28;20050;-51
2022/01/24 01:21:21;;;;;;;7.25;5.15;;;6.00;99.90;;;;;;5011697;28;20049;-49
2022/01/24 01:23:52;;;;;;;6.60;5.28;;;5.90;99.90;;;;;;5017542;28;20056;-46
2022/01/24 01:26:31;;;;;;;5.47;4.90;;;5.90;99.90;;;;;;5114062;28;20050;-53
2022/01/24 01:29:24;;;;;;;5.87;4.90;;;5.80;99.90;;;;;;5113999;28;20055;-50
2022/01/24 01:55:58;;;;;;;6.75;4.60;;;5.70;99.90;;;;;;5050790;28;20448;-52
2022/01/24 01:58:24;;;;;;;6.55;4.70;;;5.70;99.90;;;;;;5050556;28;20087;-49
2022/01/24 02:00:53;;;;;;;6.00;4.85;;;5.70;99.90;;;;;;5033941;28;20124;-49
2022/01/24 02:03:20;;;;;;;4.53;4.05;;;5.70;99.90;;;;;;5050567;28;20527;-48
2022/01/24 02:05:46;;;;;;;5.47;4.57;;;5.70;99.90;;;;;;5050527;28;20045;-48
2022/01/24 02:08:11;;;;;;;7.00;4.45;;;5.70;99.90;;;;;;5050387;28;20102;-51
2022/01/24 02:10:39;;;;;;;7.05;4.30;;;5.80;99.90;;;;;;5050408;28;20044;-48
2022/01/24 02:13:05;;;;;;;7.03;4.22;;;5.80;99.90;;;;;;5050439;28;20488;-47
2022/01/24 02:23:46;;;;;;;6.93;5.22;;;5.70;99.90;;;;;;5112901;28;20062;-52
2022/01/24 02:26:18;;;;;;;4.82;4.20;;;5.70;99.90;;;;;;5094333;28;20055;-47
2022/01/24 02:33:58;;;;;;;5.60;4.82;;;5.50;99.90;;;;;;5112822;28;20051;-48
2022/01/24 02:36:24;;;;;;;6.65;5.10;;;5.60;99.90;;;;;;5112798;28;20402;-51
2022/01/24 02:49:32;;;;;;;6.03;4.85;;;5.60;99.90;;;;;;5010182;28;20050;-53
2022/01/24 02:52:13;;;;;;;6.60;4.97;;;5.60;99.90;;;;;;5010114;28;20108;-51
2022/01/24 02:54:40;;;;;;;6.30;4.88;;;5.60;99.90;;;;;;5010138;28;20081;-48
2022/01/24 02:57:08;;;;;;;6.53;4.93;;;5.70;99.90;;;;;;5010139;28;20534;-50
2022/01/24 02:59:35;;;;;;;7.25;4.28;;;5.60;99.90;;;;;;5009971;28;20038;-49
2022/01/24 03:02:01;;;;;;;6.35;5.03;;;5.70;99.90;;;;;;5009986;28;20041;-48
2022/01/24 03:04:27;;;;;;;5.88;5.07;;;5.70;99.90;;;;;;5010063;28;20057;-52
2022/01/24 03:06:53;;;;;;;5.63;4.82;;;5.70;99.90;;;;;;5010273;28;20045;-51
2022/01/24 03:09:22;;;;;;;5.88;5.03;;;5.70;99.90;;;;;;5009728;28;20041;-50
2022/01/24 03:14:17;;;;;;;5.32;4.80;;;5.60;99.90;;;;;;5009771;28;20072;-51
2022/01/24 03:16:44;;;;;;;7.18;5.20;;;5.70;99.90;;;;;;5009633;28;20452;-50
2022/01/24 03:19:09;;;;;;;7.15;5.40;;;5.70;99.90;;;;;;5009868;28;20038;-49
2022/01/24 03:21:35;;;;;;;6.95;5.93;;;5.60;99.90;;;;;;5010122;28;20502;-50
2022/01/24 03:24:01;;;;;;;6.65;5.53;;;5.60;99.90;;;;;;5080376;28;20691;-51
2022/01/24 03:26:26;;;;;;;7.85;5.35;;;5.60;99.90;;;;;;5112059;28;20039;-48
2022/01/24 03:28:52;;;;;;;6.82;5.57;;;5.60;99.90;;;;;;5111891;28;20044;-48
2022/01/24 03:31:18;;;;;;;8.13;5.53;;;5.60;99.90;;;;;;5112076;28;20235;-50
2022/01/24 03:33:44;;;;;;;6.50;5.40;;;5.60;99.90;;;;;;5111995;28;20096;-49
2022/01/24 03:36:09;;;;;;;6.68;5.72;;;5.60;99.90;;;;;;5113848;28;20528;-50
2022/01/24 03:38:35;;;;;;;7.95;5.40;;;5.60;99.90;;;;;;5116057;28;20466;-51
2022/01/24 03:41:01;;;;;;;11.05;5.68;;;5.60;99.90;;;;;;5116084;28;20077;-48
2022/01/24 03:43:27;;;;;;;7.15;6.05;;;5.60;99.90;;;;;;5098067;28;20062;-48
2022/01/24 03:51:12;;;;;;;7.93;5.90;;;5.70;99.90;;;;;;5013390;28;20053;-49
2022/01/24 03:53:40;;;;;;;9.05;6.70;;;5.70;99.90;;;;;;5013198;28;20104;-49
2022/01/24 03:56:06;;;;;;;9.35;6.20;;;5.60;99.90;;;;;;5013292;28;20041;-48
2022/01/24 03:58:32;;;;;;;8.13;5.45;;;5.60;99.90;;;;;;5013302;28;20045;-47
2022/01/24 04:00:58;;;;;;;7.57;6.15;;;5.60;99.90;;;;;;5013276;28;20052;-49
2022/01/24 04:03:24;;;;;;;9.43;6.25;;;5.60;99.90;;;;;;5013231;28;20214;-48
2022/01/24 04:05:50;;;;;;;7.47;6.63;;;5.70;99.90;;;;;;5013041;28;20050;-52
2022/01/24 04:08:16;;;;;;;6.88;5.53;;;5.70;99.90;;;;;;5012981;28;20052;-50
2022/01/24 04:10:45;;;;;;;8.15;6.18;;;5.70;99.90;;;;;;5012949;28;20037;-49
2022/01/24 04:13:56;;;;;;;8.30;6.38;;;5.70;99.90;;;;;;5012845;28;20476;-49
2022/01/24 04:23:49;;;;;;;12.25;7.80;;;5.70;99.90;;;;;;5012808;28;20103;-48
2022/01/24 04:26:15;;;;;;;8.57;6.70;;;5.70;99.90;;;;;;5081199;28;20051;-51
2022/01/24 04:28:41;;;;;;;10.02;7.47;;;5.60;99.90;;;;;;5114984;28;20039;-52
2022/01/24 04:31:07;;;;;;;10.68;7.53;;;5.70;99.90;;;;;;5115018;28;20050;-51
2022/01/24 04:33:33;;;;;;;9.38;7.50;;;5.60;99.90;;;;;;5114981;28;20481;-50
2022/01/24 04:35:59;;;;;;;10.77;8.32;;;5.60;99.90;;;;;;5115020;28;20031;-51
2022/01/24 04:38:25;;;;;;;10.95;8.15;;;5.60;99.90;;;;;;5096942;28;20092;-49
2022/01/24 04:40:56;;;;;;;11.75;7.95;;;5.60;99.90;;;;;;5114970;28;20044;-47
2022/01/24 04:56:37;;;;;;;11.15;8.75;;;5.60;99.90;;;;;;5114630;28;20366;-48
2022/01/24 04:59:03;;;;;;;14.02;9.25;;;5.60;99.90;;;;;;5114760;28;20039;-49
2022/01/24 05:01:28;;;;;;;12.88;9.40;;;5.60;99.90;;;;;;5114462;28;20042;-49
2022/01/24 05:03:54;;;;;;;13.00;9.23;;;5.60;99.90;;;;;;5114614;28;20415;-48
2022/01/24 05:06:20;;;;;;;11.48;8.85;;;5.70;99.90;;;;;;5114411;28;20038;-51
2022/01/24 05:08:45;;;;;;;14.93;9.77;;;5.70;99.90;;;;;;5096233;28;20495;-49
2022/01/24 05:11:17;;;;;;;12.30;9.70;;;5.70;99.90;;;;;;5114395;28;20031;-51
2022/01/24 05:23:27;;;;;;;12.88;10.32;;;5.70;99.90;;;;;;5114289;28;20128;-49
2022/01/24 05:24:41;;;;;;;14.82;9.93;;;5.70;99.90;;;;;;5114015;28;20104;-51
2022/01/24 05:27:07;;;;;;;12.15;10.43;;;5.70;99.90;;;;;;5114082;28;20031;-49
2022/01/24 05:29:32;;;;;;;12.93;10.45;;;5.60;99.90;;;;;;5113703;28;20054;-50
2022/01/24 05:31:58;;;;;;;12.90;9.82;;;5.70;99.90;;;;;;5114205;28;20086;-48
2022/01/24 05:34:24;;;;;;;14.57;11.07;;;5.70;99.90;;;;;;5113888;28;20036;-47
2022/01/24 05:36:50;;;;;;;14.48;11.05;;;5.60;99.90;;;;;;5114183;28;20043;-50
2022/01/24 05:39:16;;;;;;;16.05;10.73;;;5.60;99.90;;;;;;5113863;28;20489;-51
2022/01/24 05:41:42;;;;;;;15.20;11.43;;;5.60;99.90;;;;;;5113694;28;20126;-49
2022/01/24 05:44:08;;;;;;;14.23;11.00;;;5.60;99.90;;;;;;5095235;28;20127;-49
2022/01/24 05:46:34;;;;;;;16.75;11.80;;;5.50;99.90;;;;;;5113796;28;20093;-51
2022/01/24 05:49:01;;;;;;;16.52;11.73;;;5.50;99.90;;;;;;5113572;28;20054;-47
2022/01/24 05:51:28;;;;;;;15.98;10.88;;;5.50;99.90;;;;;;5095347;28;20047;-50
2022/01/24 05:53:54;;;;;;;15.88;11.60;;;5.50;99.90;;;;;;5095413;28;20499;-49
2022/01/24 05:56:20;;;;;;;15.98;11.57;;;5.50;99.90;;;;;;5113426;28;20071;-47
2022/01/24 05:58:46;;;;;;;16.75;11.95;;;5.50;99.90;;;;;;5112719;28;20069;-48
2022/01/24 06:01:12;;;;;;;16.48;11.98;;;5.50;99.90;;;;;;5111044;28;20035;-50
2022/01/24 06:03:38;;;;;;;14.52;10.95;;;5.60;99.90;;;;;;5096788;28;20628;-47
2022/01/24 06:06:03;;;;;;;14.45;11.02;;;5.50;99.90;;;;;;5098034;28;20478;-49
2022/01/24 06:08:29;;;;;;;16.92;11.32;;;5.50;99.90;;;;;;5093553;28;20038;-49
2022/01/24 06:10:58;;;;;;;17.83;12.75;;;5.50;99.90;;;;;;5103296;28;20539;-51
2022/01/24 06:13:25;;;;;;;16.33;11.88;;;5.60;99.90;;;;;;5104842;28;20040;-51
2022/01/24 06:15:51;;;;;;;14.85;11.63;;;5.50;99.90;;;;;;5100357;28;20027;-47
2022/01/24 06:18:16;;;;;;;14.90;11.48;;;5.50;99.90;;;;;;5101131;28;20107;-50
2022/01/24 06:20:43;;;;;;;17.52;12.02;;;5.50;99.90;;;;;;5102644;28;20028;-51
2022/01/24 06:23:15;;;;;;;16.25;11.27;;;5.50;99.90;;;;;;5100456;28;20046;-51
2022/01/24 06:25:41;;;;;;;14.65;11.10;;;5.50;99.90;;;;;;5102768;28;20051;-50
2022/01/24 06:28:07;;;;;;;15.52;11.07;;;5.60;99.90;;;;;;5099653;28;20093;-49
2022/01/24 06:30:33;;;;;;;16.45;11.88;;;5.60;99.90;;;;;;5102693;28;20044;-48
2022/01/24 06:32:58;;;;;;;16.02;11.75;;;5.60;99.90;;;;;;5102543;28;20066;-49
2022/01/24 06:35:24;;;;;;;16.77;11.35;;;5.60;99.90;;;;;;5093954;28;20406;-50
2022/01/24 06:37:50;;;;;;;16.17;11.40;;;5.60;99.90;;;;;;5102499;28;20107;-52
2022/01/24 06:40:16;;;;;;;16.08;12.20;;;5.60;99.90;;;;;;5111083;28;20040;-47
2022/01/24 06:42:42;;;;;;;15.68;11.88;;;5.60;99.90;;;;;;5111538;28;20040;-51
2022/01/24 06:45:09;;;;;;;17.08;11.70;;;5.60;99.90;;;;;;5112614;28;20039;-46
2022/01/24 06:47:35;;;;;;;14.45;11.13;;;5.60;99.90;;;;;;5112541;28;20046;-47
2022/01/24 06:50:01;;;;;;;15.70;12.13;;;5.60;99.90;;;;;;5112546;28;20466;-47
2022/01/24 06:52:27;;;;;;;13.45;10.93;;;5.60;99.90;;;;;;5112562;28;20039;-48
2022/01/24 06:54:53;;;;;;;16.90;11.55;;;5.60;99.90;;;;;;5112284;28;20036;-50
2022/01/24 06:57:18;;;;;;;16.45;11.38;;;5.60;99.90;;;;;;5112462;28;20038;-47
2022/01/24 06:59:45;;;;;;;17.33;11.82;;;5.60;99.90;;;;;;5112506;28;20115;-53
2022/01/24 07:02:12;;;;;;;16.00;11.68;;;5.60;99.90;;;;;;5112390;28;20389;-51
2022/01/24 07:04:39;;;;;;;14.75;10.82;;;5.60;99.90;;;;;;5094029;28;20092;-47
2022/01/24 07:07:09;;;;;;;15.40;11.55;;;5.60;99.90;;;;;;5112632;28;20100;-51
2022/01/24 07:09:35;;;;;;;14.05;10.82;;;5.60;99.90;;;;;;5112241;28;20039;-47
2022/01/24 07:12:02;;;;;;;16.88;11.15;;;5.60;99.90;;;;;;5112144;28;20036;-46
2022/01/24 07:14:27;;;;;;;17.90;11.95;;;5.60;99.90;;;;;;5112287;28;20459;-49
2022/01/24 07:19:29;;;;;;;15.13;11.65;;;5.60;99.90;;;;;;5112060;28;20486;-50
2022/01/24 07:21:56;;;;;;;14.25;11.18;;;5.60;99.90;;;;;;5112094;28;20028;-50
2022/01/24 07:24:23;;;;;;;13.95;10.27;;;5.60;99.90;;;;;;5111871;28;20075;-51
2022/01/24 07:26:49;;;;;;;15.48;10.43;;;5.60;99.90;;;;;;5112053;28;20039;-51
2022/01/24 07:29:14;;;;;;;14.82;10.60;;;5.50;99.90;;;;;;5111907;28;20055;-49
2022/01/24 07:31:40;;;;;;;14.68;10.68;;;5.50;99.90;;;;;;5111808;28;20054;-48
2022/01/24 07:34:05;;;;;;;15.38;10.95;;;5.50;99.90;;;;;;5111805;28;20035;-48
2022/01/24 07:36:31;;;;;;;14.15;10.35;;;5.50;99.90;;;;;;5111839;28;20381;-51
2022/01/24 07:38:57;;;;;;;11.50;9.10;;;5.50;99.90;;;;;;5112254;28;20378;-47
2022/01/24 07:41:26;;;;;;;12.60;10.05;;;5.50;99.90;;;;;;5112034;28;20370;-49
2022/01/24 07:43:52;;;;;;;18.50;11.20;;;5.50;99.90;;;;;;5111867;28;20047;-50
2022/01/24 07:46:18;;;;;;;14.45;10.43;;;5.50;99.90;;;;;;5111740;28;20127;-48
2022/01/24 07:48:44;;;;;;;15.13;10.23;;;5.50;99.90;;;;;;5111665;28;20122;-51
2022/01/24 07:51:10;;;;;;;12.80;10.15;;;5.50;99.90;;;;;;5112086;28;20035;-51
2022/01/24 07:53:36;;;;;;;13.15;10.27;;;5.50;99.90;;;;;;5111920;28;20119;-53
2022/01/24 07:56:03;;;;;;;14.18;10.90;;;5.50;99.90;;;;;;5111990;28;20628;-49
2022/01/24 07:58:29;;;;;;;15.65;10.50;;;5.60;99.90;;;;;;5111864;28;20039;-50
2022/01/24 08:00:55;;;;;;;12.13;9.68;;;5.60;99.90;;;;;;5111768;28;20105;-52
2022/01/24 08:03:20;;;;;;;11.52;9.65;;;5.60;99.90;;;;;;5111837;28;20065;-48
2022/01/24 08:05:46;;;;;;;11.82;9.20;;;5.50;99.90;;;;;;5111735;28;20723;-48
2022/01/24 08:08:12;;;;;;;10.45;7.57;;;5.60;99.90;;;;;;5111840;28;20390;-50
2022/01/24 08:10:38;;;;;;;10.07;7.95;;;5.60;99.90;;;;;;5111751;28;20096;-51
2022/01/24 08:13:04;;;;;;;9.13;7.85;;;5.70;99.90;;;;;;5111543;28;20075;-53
2022/01/24 08:15:30;;;;;;;11.38;8.23;;;5.70;99.90;;;;;;5111720;28;20038;-52
2022/01/24 08:17:55;;;;;;;12.25;9.25;;;5.60;99.90;;;;;;5111813;28;20032;-50
2022/01/24 08:20:23;;;;;;;11.93;9.10;;;5.60;99.90;;;;;;5111491;28;20035;-52
2022/01/24 08:22:49;;;;;;;11.13;9.20;;;5.60;99.90;;;;;;5112948;28;20035;-48
2022/01/24 08:25:15;;;;;;;11.02;9.05;;;5.60;99.90;;;;;;5115485;28;20481;-50
2022/01/24 08:27:41;;;;;;;12.90;9.80;;;5.60;99.90;;;;;;5115250;28;20031;-46
2022/01/24 08:30:11;;;;;;;12.45;9.02;;;5.60;99.90;;;;;;5114903;28;20486;-51
2022/01/24 08:32:37;;;;;;;14.70;9.85;;;5.60;99.90;;;;;;5115086;28;20047;-50
2022/01/24 08:35:03;;;;;;;13.80;10.93;;;5.60;99.90;;;;;;5114963;28;20035;-50
2022/01/24 08:37:30;;;;;;;13.80;10.82;;;5.70;99.90;;;;;;5115029;28;20532;-49
2022/01/24 08:39:58;;;;;;;15.68;10.93;;;5.60;99.90;;;;;;5115153;28;20366;-51
2022/01/24 08:42:33;;;;;;;14.20;10.55;;;5.70;99.90;;;;;;5115015;28;20036;-49
2022/01/24 08:47:27;;;;;;;14.65;10.90;;;5.70;99.90;;;;;;5114770;28;20127;-51
2022/01/24 08:49:53;;;;;;;12.93;9.88;;;5.70;99.90;;;;;;5115240;28;20457;-47
2022/01/24 08:52:20;;;;;;;14.02;10.85;;;5.70;99.90;;;;;;5115103;28;20044;-48
2022/01/24 08:54:46;;;;;;;13.75;10.88;;;5.70;99.90;;;;;;5114731;28;20086;-52
2022/01/24 08:57:13;;;;;;;14.13;11.30;;;5.80;99.90;;;;;;5114665;28;20039;-49
2022/01/24 08:59:40;;;;;;;17.40;12.63;;;5.80;99.90;;;;;;5114633;28;20040;-47
2022/01/24 09:02:06;;;;;;;17.17;12.02;;;5.80;99.90;;;;;;5114396;28;20119;-50
2022/01/24 09:04:32;;;;;;;17.05;13.00;;;5.80;99.90;;;;;;5114791;28;20036;-47
2022/01/24 09:07:02;;;;;;;17.05;12.30;;;5.80;99.90;;;;;;5096026;28;20160;-48
2022/01/24 09:09:29;;;;;;;15.98;11.85;;;5.90;99.90;;;;;;5114801;28;20043;-47
2022/01/24 09:11:55;;;;;;;15.63;12.02;;;5.90;99.90;;;;;;5114367;28;20050;-51
2022/01/24 09:14:20;;;;;;;15.60;11.50;;;5.90;99.90;;;;;;5114174;28;20035;-48
2022/01/24 09:16:46;;;;;;;17.08;11.90;;;5.80;99.90;;;;;;5095696;28;20047;-48
2022/01/24 09:19:13;;;;;;;16.15;12.60;;;5.80;99.90;;;;;;5114332;28;20032;-48
2022/01/24 09:21:38;;;;;;;15.68;11.88;;;5.80;99.90;;;;;;5114115;28;20043;-51
2022/01/24 09:24:05;;;;;;;16.80;12.43;;;5.90;99.90;;;;;;5114019;28;20036;-51
2022/01/24 09:26:31;;;;;;;18.95;12.82;;;5.80;99.90;;;;;;5114319;28;20039;-51
2022/01/24 09:28:57;;;;;;;19.00;12.55;;;5.90;99.90;;;;;;5114146;28;20136;-51
2022/01/24 09:31:23;;;;;;;17.25;12.32;;;5.90;99.90;;;;;;5113598;28;20087;-52
2022/01/24 09:33:52;;;;;;;19.42;13.52;;;5.90;99.90;;;;;;5113992;28;20050;-49
2022/01/24 09:36:19;;;;;;;17.13;13.02;;;5.90;99.90;;;;;;5113964;28;20043;-48
2022/01/24 09:38:45;;;;;;;20.95;14.80;;;5.90;99.90;;;;;;5113734;28;20393;-52
2022/01/24 09:41:15;;;;;;;18.95;13.65;;;5.90;99.90;;;;;;5113714;28;20039;-52
2022/01/24 09:43:46;;;;;;;20.27;15.05;;;6.00;99.90;;;;;;5113622;28;20477;-52
2022/01/24 09:46:12;;;;;;;23.98;17.20;;;5.90;99.90;;;;;;5113667;28;20126;-47
2022/01/24 09:48:40;;;;;;;23.20;17.02;;;6.00;99.90;;;;;;5113284;28;20043;-51
2022/01/24 09:51:06;;;;;;;22.70;16.50;;;5.90;99.90;;;;;;5113761;28;20050;-52
2022/01/24 09:53:33;;;;;;;21.95;16.50;;;6.00;99.90;;;;;;5113430;28;20089;-53
2022/01/24 09:56:03;;;;;;;22.55;16.60;;;6.00;99.90;;;;;;5113543;28;20075;-49
2022/01/24 09:58:31;;;;;;;21.98;16.95;;;6.00;99.90;;;;;;5114081;28;20511;-49
2022/01/24 10:01:01;;;;;;;25.30;17.75;;;6.00;99.90;;;;;;5113464;28;20040;-51
2022/01/24 10:03:27;;;;;;;26.92;18.00;;;6.00;99.90;;;;;;5113255;28;20040;-53
2022/01/24 10:05:55;;;;;;;28.17;19.23;;;6.00;99.90;;;;;;5113382;28;20074;-50
2022/01/24 10:08:24;;;;;;;29.65;20.40;;;6.00;99.90;;;;;;5113092;28;20036;-48
2022/01/24 10:11:03;;;;;;;31.17;20.70;;;6.00;99.90;;;;;;5113154;28;20047;-46
2022/01/24 10:16:44;;;;;;;33.25;21.98;;;6.00;99.90;;;;;;5113048;28;20464;-51
2022/01/24 10:19:16;;;;;;;36.88;23.77;;;6.00;99.90;;;;;;5112945;28;20039;-49
2022/01/24 10:21:49;;;;;;;36.95;22.77;;;6.00;99.90;;;;;;5113231;28;20043;-50
2022/01/24 10:24:42;;;;;;;33.83;23.42;;;6.00;99.90;;;;;;5112750;28;20043;-48
2022/01/24 10:27:18;;;;;;;34.85;22.83;;;6.00;99.90;;;;;;5112954;28;20050;-47
2022/01/24 10:29:59;;;;;;;36.38;23.20;;;6.00;99.90;;;;;;5112977;28;20123;-51
2022/01/24 10:32:43;;;;;;;35.50;24.00;;;6.00;99.90;;;;;;5113248;28;20056;-49
2022/01/24 10:35:37;;;;;;;36.60;24.33;;;6.00;99.90;;;;;;5112818;28;20428;-50
2022/01/24 10:38:54;;;;;;;34.45;22.92;;;6.00;99.90;;;;;;5112904;28;20370;-51
2022/01/24 10:41:23;;;;;;;35.50;23.48;;;6.00;99.90;;;;;;5112594;28;20046;-49
2022/01/24 10:43:52;;;;;;;33.28;23.50;;;6.10;99.90;;;;;;5112630;28;20116;-49
2022/01/24 10:46:23;;;;;;;37.63;24.50;;;6.00;99.90;;;;;;5111847;28;20044;-49
2022/01/24 10:49:03;;;;;;;37.72;24.08;;;6.00;99.90;;;;;;5112667;28;20042;-45
2022/01/24 10:51:40;;;;;;;34.55;23.67;;;6.00;99.90;;;;;;5112526;28;20047;-48
2022/01/24 10:54:07;;;;;;;38.90;24.55;;;6.00;99.90;;;;;;5112447;28;20401;-49
2022/01/24 10:56:39;;;;;;;38.85;24.48;;;6.10;99.90;;;;;;5112272;28;20469;-48
2022/01/24 10:59:22;;;;;;;40.67;25.80;;;6.10;99.90;;;;;;5112382;28;20035;-50
2022/01/24 11:01:55;;;;;;;35.50;23.77;;;6.10;99.90;;;;;;5112403;28;20032;-50
2022/01/24 11:04:23;;;;;;;34.85;23.00;;;6.00;99.90;;;;;;5093705;28;20055;-49
2022/01/24 11:06:54;;;;;;;38.10;23.40;;;6.10;99.90;;;;;;5112143;28;20086;-50
2022/01/24 11:09:23;;;;;;;32.42;21.90;;;6.10;99.90;;;;;;5112558;28;20489;-52
2022/01/24 11:12:07;;;;;;;34.05;23.52;;;6.00;99.90;;;;;;5112087;28;20474;-51
2022/01/24 11:14:35;;;;;;;33.85;23.52;;;6.00;99.90;;;;;;5093874;28;20051;-51
2022/01/24 11:17:02;;;;;;;38.13;23.65;;;6.00;99.90;;;;;;5084001;28;20040;-49
2022/01/24 11:19:39;;;;;;;38.45;25.70;;;6.00;99.90;;;;;;5089877;28;20047;-51
2022/01/24 11:22:06;;;;;;;39.53;25.55;;;6.00;99.90;;;;;;5091739;28;20531;-52
2022/01/24 11:24:46;;;;;;;36.08;24.52;;;6.00;99.90;;;;;;5091713;28;20044;-49
2022/01/24 11:27:11;;;;;;;37.35;24.85;;;6.00;99.90;;;;;;5091826;28;20044;-52
2022/01/24 11:29:38;;;;;;;40.80;25.77;;;6.00;99.90;;;;;;5091738;28;20123;-49
2022/01/24 11:32:22;;;;;;;40.10;25.25;;;6.10;99.90;;;;;;5091398;28;20056;-53
2022/01/24 11:34:50;;;;;;;43.38;26.08;;;6.00;99.90;;;;;;5091768;28;20044;-51
2022/01/24 11:37:39;;;;;;;44.53;26.75;;;6.10;99.90;;;;;;5091481;28;20511;-51
2022/01/24 11:40:12;;;;;;;38.13;26.63;;;6.00;99.90;;;;;;5091532;28;20036;-52
2022/01/24 11:42:40;;;;;;;41.97;26.77;;;6.00;99.90;;;;;;5091752;28;20040;-47
2022/01/24 11:45:14;;;;;;;41.42;26.98;;;6.10;99.90;;;;;;5091535;28;20040;-49
2022/01/24 11:47:42;;;;;;;41.17;27.42;;;6.10;99.90;;;;;;5091843;28;20036;-51
2022/01/24 11:50:31;;;;;;;45.35;29.13;;;6.10;99.90;;;;;;5073643;28;20510;-52
2022/01/24 11:52:58;;;;;;;40.17;26.10;;;6.10;99.90;;;;;;5073408;28;20105;-53
2022/01/24 11:55:34;;;;;;;40.42;26.02;;;6.10;99.90;;;;;;5091770;28;20482;-51
2022/01/24 11:58:07;;;;;;;39.63;26.20;;;6.10;99.90;;;;;;5093067;28;20036;-51
2022/01/24 12:00:44;;;;;;;44.95;25.77;;;6.10;99.90;;;;;;5095535;28;20040;-52
2022/01/24 12:03:23;;;;;;;40.05;26.42;;;6.00;99.90;;;;;;5095306;28;20040;-49
2022/01/24 12:05:53;;;;;;;40.80;26.73;;;6.00;99.90;;;;;;5095256;28;20047;-50
2022/01/24 12:08:31;;;;;;;40.55;25.38;;;6.00;99.90;;;;;;5095436;28;20059;-53
2022/01/24 12:11:13;;;;;;;39.47;25.05;;;6.10;99.90;;;;;;5095302;28;20044;-53
2022/01/24 12:13:46;;;;;;;41.72;24.35;;;6.00;99.90;;;;;;5076598;28;20043;-49
2022/01/24 12:16:14;;;;;;;36.10;23.77;;;6.10;99.90;;;;;;5094506;28;20040;-49
2022/01/24 12:18:40;;;;;;;36.63;23.17;;;6.10;99.90;;;;;;5087800;28;20035;-49
2022/01/24 12:21:25;;;;;;;35.58;23.00;;;6.10;99.90;;;;;;5095106;28;20096;-52
2022/01/24 12:24:02;;;;;;;41.00;23.73;;;6.10;99.90;;;;;;5095018;28;20625;-51
2022/01/24 12:26:54;;;;;;;38.40;23.17;;;6.10;99.90;;;;;;5094746;28;20119;-53
2022/01/24 12:29:27;;;;;;;36.45;22.73;;;6.10;99.90;;;;;;5093676;28;20044;-52
2022/01/24 12:31:58;;;;;;;35.72;24.48;;;6.10;99.90;;;;;;5094568;28;20059;-51
2022/01/24 12:34:42;;;;;;;43.85;27.33;;;6.10;99.90;;;;;;5094629;28;20391;-51
2022/01/24 12:37:22;;;;;;;51.33;29.95;;;6.10;99.90;;;;;;5076055;28;20050;-51
2022/01/24 12:39:55;;;;;;;50.60;31.88;;;6.10;99.90;;;;;;5105559;28;20035;-47
2022/01/24 12:42:49;;;;;;;47.55;31.40;;;6.10;99.90;;;;;;5113794;28;20512;-51
2022/01/24 12:48:16;;;;;;;48.92;30.77;;;6.10;99.90;;;;;;5112487;28;21322;-48
2022/01/24 12:50:47;;;;;;;51.03;31.55;;;6.10;99.90;;;;;;5113660;28;20486;-51
2022/01/24 12:53:15;;;;;;;46.05;26.38;;;6.00;99.90;;;;;;5093481;28;20055;-51
2022/01/24 12:55:43;;;;;;;38.25;23.52;;;6.00;99.90;;;;;;5113443;28;20389;-51
2022/01/24 12:58:09;;;;;;;36.90;23.73;;;6.00;99.90;;;;;;5114292;28;20027;-47
2022/01/24 13:00:35;;;;;;;42.30;25.92;;;6.10;99.90;;;;;;5114509;28;20126;-48
2022/01/24 13:03:00;;;;;;;45.60;26.00;;;6.00;99.90;;;;;;5113873;28;20115;-50
2022/01/24 13:05:28;;;;;;;45.42;26.92;;;6.00;99.90;;;;;;5114209;28;20507;-51
2022/01/24 13:07:57;;;;;;;38.72;26.08;;;6.00;99.90;;;;;;5108590;28;20044;-48
2022/01/24 13:10:30;;;;;;;37.30;24.17;;;6.00;99.90;;;;;;5093667;28;20043;-50
2022/01/24 13:13:05;;;;;;;38.95;24.38;;;6.00;99.90;;;;;;5112115;28;20042;-47
2022/01/24 13:21:12;;;;;;;39.97;24.85;;;6.00;99.90;;;;;;5113155;28;20043;-47
2022/01/24 13:23:42;;;;;;;35.95;23.60;;;6.00;99.90;;;;;;5111835;28;20031;-51
2022/01/24 13:26:09;;;;;;;33.92;22.63;;;6.10;99.90;;;;;;5111911;28;20077;-51
2022/01/24 13:28:35;;;;;;;36.60;24.15;;;6.00;99.90;;;;;;5111405;28;20385;-46
2022/01/24 13:31:03;;;;;;;36.63;24.13;;;6.00;99.90;;;;;;5113658;28;20051;-51
2022/01/24 13:33:30;;;;;;;33.78;23.40;;;6.00;99.90;;;;;;5113893;28;20048;-49
2022/01/24 13:36:04;;;;;;;39.03;24.50;;;6.00;99.90;;;;;;5109489;28;20044;-53
2022/01/24 13:38:36;;;;;;;32.92;22.98;;;6.10;99.90;;;;;;5114145;28;20089;-53
2022/01/24 13:41:09;;;;;;;32.65;22.38;;;6.00;99.90;;;;;;5113942;28;20043;-48
2022/01/24 13:43:37;;;;;;;35.05;22.30;;;6.00;99.90;;;;;;5095655;28;20054;-50
2022/01/24 13:46:14;;;;;;;37.58;24.08;;;6.10;99.90;;;;;;5114292;28;20036;-52
2022/01/24 13:48:46;;;;;;;35.95;24.40;;;6.00;99.90;;;;;;5113943;28;20039;-48
2022/01/24 13:51:20;;;;;;;41.53;25.35;;;6.00;99.90;;;;;;5111837;28;20043;-48
2022/01/24 13:53:55;;;;;;;36.15;23.95;;;6.00;99.90;;;;;;5116122;27;20473;-52
2022/01/24 13:56:34;;;;;;;34.78;22.42;;;6.00;99.90;;;;;;5113682;28;20042;-50
2022/01/24 13:59:04;;;;;;;36.15;22.67;;;6.00;99.90;;;;;;5113958;28;20036;-49
2022/01/24 14:01:31;;;;;;;32.63;21.58;;;6.00;99.90;;;;;;5113547;28;20036;-47
2022/01/24 14:03:59;;;;;;;37.80;22.90;;;6.00;99.90;;;;;;5113595;28;20048;-52
2022/01/24 14:06:29;;;;;;;36.87;21.57;;;6.00;99.90;;;;;;5113448;28;20040;-50
2022/01/24 14:09:15;;;;;;;33.72;23.17;;;5.90;99.90;;;;;;5113774;28;20092;-51
2022/01/24 14:11:50;;;;;;;37.15;23.33;;;6.00;99.90;;;;;;5095666;28;20063;-52
2022/01/24 14:14:20;;;;;;;34.42;22.67;;;5.90;99.90;;;;;;5113244;28;20036;-54
2022/01/24 14:17:03;;;;;;;34.42;23.27;;;5.90;99.90;;;;;;5113428;28;20457;-51
2022/01/24 14:19:32;;;;;;;40.22;23.88;;;5.90;99.90;;;;;;5113009;28;20035;-50
2022/01/24 14:22:08;;;;;;;32.33;22.35;;;5.90;99.90;;;;;;5112471;28;20027;-51
2022/01/24 14:24:47;;;;;;;34.17;22.02;;;5.90;99.90;;;;;;5106272;28;20054;-49
2022/01/24 14:27:34;;;;;;;31.60;20.90;;;5.90;99.90;;;;;;5106387;28;20108;-52
2022/01/24 14:30:31;;;;;;;34.30;21.27;;;5.90;99.90;;;;;;5080600;28;20406;-47
2022/01/24 14:33:16;;;;;;;34.40;22.45;;;5.90;99.90;;;;;;5106285;28;20051;-52
2022/01/24 14:35:51;;;;;;;37.20;23.42;;;5.90;99.90;;;;;;5105996;28;20092;-51
2022/01/24 14:38:27;;;;;;;33.30;20.98;;;5.90;99.90;;;;;;5105723;28;20079;-51
2022/01/24 14:40:55;;;;;;;33.33;21.80;;;5.90;99.90;;;;;;5112672;28;20032;-48
2022/01/24 14:46:12;;;;;;;39.67;23.25;;;5.90;99.90;;;;;;5112988;28;20043;-51
2022/01/24 14:48:56;;;;;;;36.63;24.23;;;5.90;99.90;;;;;;5113003;28;20103;-47
2022/01/24 14:51:24;;;;;;;42.17;24.35;;;5.90;99.90;;;;;;5112635;28;20078;-52
2022/01/24 14:53:52;;;;;;;35.47;22.67;;;5.90;99.90;;;;;;5112536;28;20062;-51
2022/01/24 14:56:18;;;;;;;35.05;21.85;;;5.90;99.90;;;;;;5112582;28;20040;-50
2022/01/24 14:58:45;;;;;;;33.65;21.60;;;6.00;99.90;;;;;;5106059;28;20050;-50
2022/01/24 15:01:12;;;;;;;32.03;21.42;;;6.00;99.90;;;;;;5109589;28;20032;-52
2022/01/24 15:03:40;;;;;;;33.50;21.50;;;6.00;99.90;;;;;;5094083;28;20194;-50
2022/01/24 15:06:07;;;;;;;32.75;21.60;;;6.00;99.90;;;;;;5112561;28;20058;-51
2022/01/24 15:08:34;;;;;;;29.10;20.58;;;5.90;99.90;;;;;;5112392;28;20135;-49
2022/01/24 15:11:00;;;;;;;32.67;20.50;;;5.90;99.90;;;;;;5112405;28;20036;-49